sensor_id;sensor_type;location;lat;lon;timestamp;pressure;altitude;pressure_sealevel;temperature;humidity
22031;BME280;11179;52.106;21.024;2022-07-17T00:01:53;100736.22;;;12.73;70.43
22031;BME280;11179;52.106;21.024;2022-07-17T00:04:19;100743.38;;;12.74;70.41
22031;BME280;11179;52.106;21.024;2022-07-17T00:06:44;100739.28;;;12.76;70.27
22031;BME280;11179;52.106;21.024;2022-07-17T00:09:09;100736.81;;;12.80;70.24
22031;BME280;11179;52.106;21.024;2022-07-17T00:11:35;100747.53;;;12.76;70.24
22031;BME280;11179;52.106;21.024;2022-07-17T00:14:00;100744.53;;;12.78;70.33
22031;BME280;11179;52.106;21.024;2022-07-17T00:16:25;100743.41;;;12.79;70.20
22031;BME280;11179;52.106;21.024;2022-07-17T00:18:51;100756.41;;;12.83;70.07
22031;BME280;11179;52.106;21.024;2022-07-17T00:21:16;100753.66;;;12.83;70.24
22031;BME280;11179;52.106;21.024;2022-07-17T00:23:42;100757.81;;;12.86;70.37
22031;BME280;11179;52.106;21.024;2022-07-17T00:26:08;100750.91;;;12.83;70.16
22031;BME280;11179;52.106;21.024;2022-07-17T00:28:33;100759.72;;;12.85;70.07
22031;BME280;11179;52.106;21.024;2022-07-17T00:30:59;100757.19;;;12.79;70.36
22031;BME280;11179;52.106;21.024;2022-07-17T00:33:24;100766.91;;;12.86;70.51
22031;BME280;11179;52.106;21.024;2022-07-17T00:35:49;100758.94;;;12.90;70.21
22031;BME280;11179;52.106;21.024;2022-07-17T00:38:15;100762.25;;;12.92;70.56
22031;BME280;11179;52.106;21.024;2022-07-17T00:40:40;100769.41;;;12.93;70.41
22031;BME280;11179;52.106;21.024;2022-07-17T00:43:06;100770.00;;;12.95;70.52
22031;BME280;11179;52.106;21.024;2022-07-17T00:45:31;100770.25;;;12.93;70.35
22031;BME280;11179;52.106;21.024;2022-07-17T00:50:25;100771.09;;;12.94;70.56
22031;BME280;11179;52.106;21.024;2022-07-17T00:52:52;100776.91;;;12.97;70.59
22031;BME280;11179;52.106;21.024;2022-07-17T00:55:18;100776.59;;;12.94;70.64
22031;BME280;11179;52.106;21.024;2022-07-17T00:57:46;100783.22;;;12.93;70.49
22031;BME280;11179;52.106;21.024;2022-07-17T01:00:12;100783.47;;;12.91;70.58
22031;BME280;11179;52.106;21.024;2022-07-17T01:02:38;100788.44;;;12.94;70.56
22031;BME280;11179;52.106;21.024;2022-07-17T01:05:04;100786.78;;;12.93;70.76
22031;BME280;11179;52.106;21.024;2022-07-17T01:07:30;100791.72;;;12.91;70.92
22031;BME280;11179;52.106;21.024;2022-07-17T01:09:57;100796.97;;;12.93;70.60
22031;BME280;11179;52.106;21.024;2022-07-17T01:12:24;100798.06;;;12.92;70.93
22031;BME280;11179;52.106;21.024;2022-07-17T01:14:50;100797.78;;;12.88;71.01
22031;BME280;11179;52.106;21.024;2022-07-17T01:17:17;100797.22;;;12.86;70.91
22031;BME280;11179;52.106;21.024;2022-07-17T01:19:42;100798.06;;;12.87;71.05
22031;BME280;11179;52.106;21.024;2022-07-17T01:22:07;100803.56;;;12.87;70.76
22031;BME280;11179;52.106;21.024;2022-07-17T01:24:33;100801.97;;;12.91;70.74
22031;BME280;11179;52.106;21.024;2022-07-17T01:26:58;100814.63;;;12.92;70.85
22031;BME280;11179;52.106;21.024;2022-07-17T01:29:24;100809.91;;;12.87;70.91
22031;BME280;11179;52.106;21.024;2022-07-17T01:31:49;100818.97;;;12.83;70.80
22031;BME280;11179;52.106;21.024;2022-07-17T01:34:15;100815.34;;;12.77;70.83
22031;BME280;11179;52.106;21.024;2022-07-17T01:36:41;100804.00;;;12.74;70.84
22031;BME280;11179;52.106;21.024;2022-07-17T01:39:07;100812.00;;;12.75;70.80
22031;BME280;11179;52.106;21.024;2022-07-17T01:41:32;100814.44;;;12.72;70.72
22031;BME280;11179;52.106;21.024;2022-07-17T01:43:58;100807.03;;;12.72;70.91
22031;BME280;11179;52.106;21.024;2022-07-17T01:46:24;100818.28;;;12.71;70.90
22031;BME280;11179;52.106;21.024;2022-07-17T01:48:50;100819.38;;;12.70;70.91
22031;BME280;11179;52.106;21.024;2022-07-17T01:51:16;100823.75;;;12.66;71.01
22031;BME280;11179;52.106;21.024;2022-07-17T01:53:41;100812.72;;;12.66;71.26
22031;BME280;11179;52.106;21.024;2022-07-17T01:56:07;100810.53;;;12.63;70.96
22031;BME280;11179;52.106;21.024;2022-07-17T01:58:33;100820.13;;;12.60;70.87
22031;BME280;11179;52.106;21.024;2022-07-17T02:00:58;100824.22;;;12.57;71.06
22031;BME280;11179;52.106;21.024;2022-07-17T02:03:24;100829.16;;;12.55;70.96
22031;BME280;11179;52.106;21.024;2022-07-17T02:05:49;100820.31;;;12.53;71.06
22031;BME280;11179;52.106;21.024;2022-07-17T02:08:15;100833.06;;;12.59;71.18
22031;BME280;11179;52.106;21.024;2022-07-17T02:10:40;100843.00;;;12.60;71.18
22031;BME280;11179;52.106;21.024;2022-07-17T02:13:05;100835.31;;;12.63;71.17
22031;BME280;11179;52.106;21.024;2022-07-17T02:15:31;100836.44;;;12.67;71.14
22031;BME280;11179;52.106;21.024;2022-07-17T02:17:57;100840.34;;;12.71;71.26
22031;BME280;11179;52.106;21.024;2022-07-17T02:20:23;100842.84;;;12.72;71.14
22031;BME280;11179;52.106;21.024;2022-07-17T02:22:48;100837.84;;;12.69;71.27
22031;BME280;11179;52.106;21.024;2022-07-17T02:25:14;100841.44;;;12.70;71.19
22031;BME280;11179;52.106;21.024;2022-07-17T02:27:40;100843.59;;;12.68;71.30
22031;BME280;11179;52.106;21.024;2022-07-17T02:30:09;100838.66;;;12.65;71.43
22031;BME280;11179;52.106;21.024;2022-07-17T02:32:35;100844.66;;;12.61;71.39
22031;BME280;11179;52.106;21.024;2022-07-17T02:35:00;100840.00;;;12.62;71.28
22031;BME280;11179;52.106;21.024;2022-07-17T02:37:25;100839.16;;;12.61;71.47
22031;BME280;11179;52.106;21.024;2022-07-17T02:39:51;100843.00;;;12.60;71.23
22031;BME280;11179;52.106;21.024;2022-07-17T02:42:23;100851.28;;;12.60;71.30
22031;BME280;11179;52.106;21.024;2022-07-17T02:44:49;100848.50;;;12.60;71.35
22031;BME280;11179;52.106;21.024;2022-07-17T02:47:26;100849.09;;;12.63;71.30
22031;BME280;11179;52.106;21.024;2022-07-17T02:49:52;100848.25;;;12.62;71.26
22031;BME280;11179;52.106;21.024;2022-07-17T02:52:18;100843.78;;;12.56;71.58
22031;BME280;11179;52.106;21.024;2022-07-17T02:54:44;100851.19;;;12.55;71.45
22031;BME280;11179;52.106;21.024;2022-07-17T02:57:09;100848.69;;;12.54;71.59
22031;BME280;11179;52.106;21.024;2022-07-17T02:59:35;100847.63;;;12.55;71.85
22031;BME280;11179;52.106;21.024;2022-07-17T03:02:00;100859.53;;;12.60;71.61
22031;BME280;11179;52.106;21.024;2022-07-17T03:04:25;100850.69;;;12.58;71.98
22031;BME280;11179;52.106;21.024;2022-07-17T03:06:51;100852.34;;;12.59;71.87
22031;BME280;11179;52.106;21.024;2022-07-17T03:09:16;100855.09;;;12.59;71.91
22031;BME280;11179;52.106;21.024;2022-07-17T03:11:43;100859.53;;;12.60;71.95
22031;BME280;11179;52.106;21.024;2022-07-17T03:14:09;100863.38;;;12.59;71.78
22031;BME280;11179;52.106;21.024;2022-07-17T03:16:34;100866.19;;;12.65;72.05
22031;BME280;11179;52.106;21.024;2022-07-17T03:18:59;100863.72;;;12.68;71.70
22031;BME280;11179;52.106;21.024;2022-07-17T03:21:25;100861.59;;;12.75;71.38
22031;BME280;11179;52.106;21.024;2022-07-17T03:23:50;100878.22;;;12.85;71.56
22031;BME280;11179;52.106;21.024;2022-07-17T03:26:15;100882.22;;;13.00;71.33
22031;BME280;11179;52.106;21.024;2022-07-17T03:28:41;100886.41;;;13.07;70.89
22031;BME280;11179;52.106;21.024;2022-07-17T03:31:06;100885.63;;;13.12;70.94
22031;BME280;11179;52.106;21.024;2022-07-17T03:33:31;100885.97;;;13.20;70.95
22031;BME280;11179;52.106;21.024;2022-07-17T03:35:57;100893.22;;;13.31;70.75
22031;BME280;11179;52.106;21.024;2022-07-17T03:38:23;100887.41;;;13.55;70.91
22031;BME280;11179;52.106;21.024;2022-07-17T03:40:48;100887.50;;;13.70;70.23
22031;BME280;11179;52.106;21.024;2022-07-17T03:43:14;100903.34;;;13.90;70.04
22031;BME280;11179;52.106;21.024;2022-07-17T03:45:39;100905.66;;;14.13;69.95
22031;BME280;11179;52.106;21.024;2022-07-17T03:48:05;100897.22;;;14.35;69.48
22031;BME280;11179;52.106;21.024;2022-07-17T03:50:31;100902.44;;;14.31;68.95
22031;BME280;11179;52.106;21.024;2022-07-17T03:52:56;100907.41;;;14.24;68.64
22031;BME280;11179;52.106;21.024;2022-07-17T03:55:21;100903.16;;;14.12;68.41
22031;BME280;11179;52.106;21.024;2022-07-17T03:57:47;100902.81;;;13.93;68.32
22031;BME280;11179;52.106;21.024;2022-07-17T04:00:13;100899.16;;;13.82;68.28
22031;BME280;11179;52.106;21.024;2022-07-17T04:02:38;100905.97;;;13.70;68.70
22031;BME280;11179;52.106;21.024;2022-07-17T04:05:04;100899.00;;;13.62;68.82
22031;BME280;11179;52.106;21.024;2022-07-17T04:07:35;100904.59;;;13.67;68.59
22031;BME280;11179;52.106;21.024;2022-07-17T04:10:00;100900.22;;;13.76;68.91
22031;BME280;11179;52.106;21.024;2022-07-17T04:12:26;100911.56;;;13.85;68.52
22031;BME280;11179;52.106;21.024;2022-07-17T04:14:52;100909.94;;;13.89;68.25
22031;BME280;11179;52.106;21.024;2022-07-17T04:17:17;100908.06;;;13.94;68.17
22031;BME280;11179;52.106;21.024;2022-07-17T04:19:43;100909.16;;;13.98;68.16
22031;BME280;11179;52.106;21.024;2022-07-17T04:22:08;100917.19;;;14.00;68.30
22031;BME280;11179;52.106;21.024;2022-07-17T04:24:34;100911.44;;;14.07;68.44
22031;BME280;11179;52.106;21.024;2022-07-17T04:26:59;100925.03;;;14.18;68.06
22031;BME280;11179;52.106;21.024;2022-07-17T04:29:24;100930.28;;;14.25;67.71
22031;BME280;11179;52.106;21.024;2022-07-17T04:31:50;100923.44;;;14.32;67.75
22031;BME280;11179;52.106;21.024;2022-07-17T04:34:16;100929.53;;;14.39;67.73
22031;BME280;11179;52.106;21.024;2022-07-17T04:36:41;100929.84;;;14.48;67.66
22031;BME280;11179;52.106;21.024;2022-07-17T04:39:07;100935.38;;;14.53;67.58
22031;BME280;11179;52.106;21.024;2022-07-17T04:41:32;100936.31;;;14.64;67.41
22031;BME280;11179;52.106;21.024;2022-07-17T04:43:57;100931.66;;;14.85;67.00
22031;BME280;11179;52.106;21.024;2022-07-17T04:46:23;100932.81;;;15.04;66.88
22031;BME280;11179;52.106;21.024;2022-07-17T04:48:48;100933.66;;;15.25;66.45
22031;BME280;11179;52.106;21.024;2022-07-17T04:51:13;100933.94;;;15.38;65.96
22031;BME280;11179;52.106;21.024;2022-07-17T04:53:39;100937.25;;;15.51;65.36
22031;BME280;11179;52.106;21.024;2022-07-17T04:56:04;100936.13;;;15.87;65.04
22031;BME280;11179;52.106;21.024;2022-07-17T04:58:30;100929.56;;;16.47;63.76
22031;BME280;11179;52.106;21.024;2022-07-17T05:00:55;100936.00;;;16.92;62.69
22031;BME280;11179;52.106;21.024;2022-07-17T05:03:21;100929.41;;;17.27;62.06
22031;BME280;11179;52.106;21.024;2022-07-17T05:05:46;100943.66;;;17.44;61.46
22031;BME280;11179;52.106;21.024;2022-07-17T05:08:11;100934.53;;;17.44;61.09
22031;BME280;11179;52.106;21.024;2022-07-17T05:10:37;100943.09;;;17.47;60.72
22031;BME280;11179;52.106;21.024;2022-07-17T05:13:02;100949.13;;;17.60;60.28
22031;BME280;11179;52.106;21.024;2022-07-17T05:15:28;100954.97;;;17.58;59.88
22031;BME280;11179;52.106;21.024;2022-07-17T05:17:53;100954.75;;;17.54;60.01
22031;BME280;11179;52.106;21.024;2022-07-17T05:20:19;100962.13;;;17.69;59.40
22031;BME280;11179;52.106;21.024;2022-07-17T05:22:44;100949.66;;;18.19;58.72
22031;BME280;11179;52.106;21.024;2022-07-17T05:25:09;100952.84;;;18.32;57.74
22031;BME280;11179;52.106;21.024;2022-07-17T05:27:35;100963.13;;;18.31;57.56
22031;BME280;11179;52.106;21.024;2022-07-17T05:30:00;100966.44;;;18.33;57.04
22031;BME280;11179;52.106;21.024;2022-07-17T05:32:26;100969.94;;;17.91;57.23
22031;BME280;11179;52.106;21.024;2022-07-17T05:34:51;100970.63;;;17.78;57.28
22031;BME280;11179;52.106;21.024;2022-07-17T05:37:16;100962.28;;;18.07;56.90
22031;BME280;11179;52.106;21.024;2022-07-17T05:39:42;100965.13;;;18.25;56.53
22031;BME280;11179;52.106;21.024;2022-07-17T05:42:07;100964.66;;;18.66;55.68
22031;BME280;11179;52.106;21.024;2022-07-17T05:44:32;100973.09;;;19.22;55.10
22031;BME280;11179;52.106;21.024;2022-07-17T05:46:58;100971.88;;;19.80;54.56
22031;BME280;11179;52.106;21.024;2022-07-17T05:49:23;100959.63;;;19.94;53.61
22031;BME280;11179;52.106;21.024;2022-07-17T05:51:48;100976.06;;;19.96;53.13
22031;BME280;11179;52.106;21.024;2022-07-17T05:54:14;100969.41;;;19.78;52.81
22031;BME280;11179;52.106;21.024;2022-07-17T05:56:39;100974.16;;;19.78;52.98
22031;BME280;11179;52.106;21.024;2022-07-17T05:59:04;100981.91;;;20.40;52.05
22031;BME280;11179;52.106;21.024;2022-07-17T06:01:30;100989.34;;;21.00;51.26
22031;BME280;11179;52.106;21.024;2022-07-17T06:03:55;100981.72;;;21.50;50.38
22031;BME280;11179;52.106;21.024;2022-07-17T06:06:20;100990.19;;;22.03;49.34
22031;BME280;11179;52.106;21.024;2022-07-17T06:08:46;100996.06;;;21.93;49.06
22031;BME280;11179;52.106;21.024;2022-07-17T06:11:12;101001.06;;;21.60;48.85
22031;BME280;11179;52.106;21.024;2022-07-17T06:13:37;101010.59;;;21.59;49.02
22031;BME280;11179;52.106;21.024;2022-07-17T06:16:03;101008.25;;;21.53;48.77
22031;BME280;11179;52.106;21.024;2022-07-17T06:18:28;101001.19;;;21.77;48.29
22031;BME280;11179;52.106;21.024;2022-07-17T06:20:54;101016.75;;;22.45;47.54
22031;BME280;11179;52.106;21.024;2022-07-17T06:23:19;101016.84;;;22.63;47.23
22031;BME280;11179;52.106;21.024;2022-07-17T06:25:44;101023.00;;;22.42;46.68
22031;BME280;11179;52.106;21.024;2022-07-17T06:28:10;101017.72;;;22.10;46.96
22031;BME280;11179;52.106;21.024;2022-07-17T06:30:35;101022.47;;;22.09;46.83
22031;BME280;11179;52.106;21.024;2022-07-17T06:33:01;101031.63;;;22.01;46.76
22031;BME280;11179;52.106;21.024;2022-07-17T06:35:26;101028.13;;;21.73;47.41
22031;BME280;11179;52.106;21.024;2022-07-17T06:37:51;101035.38;;;21.38;47.46
22031;BME280;11179;52.106;21.024;2022-07-17T06:40:17;101032.97;;;21.09;47.84
22031;BME280;11179;52.106;21.024;2022-07-17T06:42:42;101039.09;;;20.84;48.17
22031;BME280;11179;52.106;21.024;2022-07-17T06:45:08;101040.00;;;20.80;48.23
22031;BME280;11179;52.106;21.024;2022-07-17T06:47:33;101043.28;;;20.54;48.34
22031;BME280;11179;52.106;21.024;2022-07-17T06:49:59;101044.00;;;20.46;49.04
22031;BME280;11179;52.106;21.024;2022-07-17T06:52:24;101037.31;;;20.47;49.08
22031;BME280;11179;52.106;21.024;2022-07-17T06:54:50;101038.56;;;20.96;48.57
22031;BME280;11179;52.106;21.024;2022-07-17T06:57:15;101037.16;;;21.93;47.38
22031;BME280;11179;52.106;21.024;2022-07-17T06:59:41;101034.19;;;22.42;46.54
22031;BME280;11179;52.106;21.024;2022-07-17T07:02:06;101032.41;;;22.46;46.24
22031;BME280;11179;52.106;21.024;2022-07-17T07:04:31;101033.03;;;22.92;45.55
22031;BME280;11179;52.106;21.024;2022-07-17T07:06:57;101035.97;;;23.61;45.10
22031;BME280;11179;52.106;21.024;2022-07-17T07:09:22;101038.00;;;23.69;44.40
22031;BME280;11179;52.106;21.024;2022-07-17T07:11:48;101032.94;;;24.35;43.34
22031;BME280;11179;52.106;21.024;2022-07-17T07:14:13;101044.44;;;24.50;43.04
22031;BME280;11179;52.106;21.024;2022-07-17T07:16:38;101047.78;;;24.26;43.35
22031;BME280;11179;52.106;21.024;2022-07-17T07:19:04;101059.88;;;24.18;42.57
22031;BME280;11179;52.106;21.024;2022-07-17T07:21:29;101055.75;;;24.16;42.65
22031;BME280;11179;52.106;21.024;2022-07-17T07:23:55;101054.63;;;24.08;43.05
22031;BME280;11179;52.106;21.024;2022-07-17T07:26:21;101052.13;;;23.98;42.62
22031;BME280;11179;52.106;21.024;2022-07-17T07:28:46;101060.75;;;23.67;43.22
22031;BME280;11179;52.106;21.024;2022-07-17T07:31:13;101064.50;;;23.54;43.68
22031;BME280;11179;52.106;21.024;2022-07-17T07:33:39;101072.56;;;23.30;43.82
22031;BME280;11179;52.106;21.024;2022-07-17T07:36:05;101063.56;;;22.93;44.04
22031;BME280;11179;52.106;21.024;2022-07-17T07:38:30;101065.50;;;23.41;43.67
22031;BME280;11179;52.106;21.024;2022-07-17T07:40:56;101074.94;;;23.97;42.86
22031;BME280;11179;52.106;21.024;2022-07-17T07:43:21;101074.09;;;24.05;42.15
22031;BME280;11179;52.106;21.024;2022-07-17T07:45:47;101065.28;;;24.49;41.84
22031;BME280;11179;52.106;21.024;2022-07-17T07:48:12;101074.34;;;24.93;41.96
22031;BME280;11179;52.106;21.024;2022-07-17T07:50:37;101074.31;;;25.02;41.83
22031;BME280;11179;52.106;21.024;2022-07-17T07:53:03;101080.09;;;24.58;41.53
22031;BME280;11179;52.106;21.024;2022-07-17T07:55:28;101089.75;;;23.88;42.86
22031;BME280;11179;52.106;21.024;2022-07-17T08:00:28;101088.44;;;24.29;42.26
22031;BME280;11179;52.106;21.024;2022-07-17T08:02:53;101082.34;;;24.74;41.61
22031;BME280;11179;52.106;21.024;2022-07-17T08:05:19;101076.97;;;25.48;41.08
22031;BME280;11179;52.106;21.024;2022-07-17T08:07:44;101077.50;;;25.92;39.58
22031;BME280;11179;52.106;21.024;2022-07-17T08:10:09;101076.16;;;26.43;39.21
22031;BME280;11179;52.106;21.024;2022-07-17T08:12:35;101076.91;;;26.77;38.47
22031;BME280;11179;52.106;21.024;2022-07-17T08:15:00;101079.78;;;27.01;38.38
22031;BME280;11179;52.106;21.024;2022-07-17T08:17:25;101072.59;;;27.40;37.72
22031;BME280;11179;52.106;21.024;2022-07-17T08:19:51;101074.63;;;27.80;36.89
22031;BME280;11179;52.106;21.024;2022-07-17T08:22:16;101074.25;;;27.81;36.89
22031;BME280;11179;52.106;21.024;2022-07-17T08:24:41;101077.72;;;28.02;36.74
22031;BME280;11179;52.106;21.024;2022-07-17T08:27:07;101082.44;;;27.98;36.69
22031;BME280;11179;52.106;21.024;2022-07-17T08:29:32;101076.78;;;27.98;36.11
22031;BME280;11179;52.106;21.024;2022-07-17T08:31:57;101079.03;;;27.53;36.03
22031;BME280;11179;52.106;21.024;2022-07-17T08:34:23;101077.41;;;27.27;36.73
22031;BME280;11179;52.106;21.024;2022-07-17T08:36:49;101075.78;;;27.02;36.86
22031;BME280;11179;52.106;21.024;2022-07-17T08:39:14;101074.97;;;27.01;36.47
22031;BME280;11179;52.106;21.024;2022-07-17T08:41:40;101068.97;;;27.15;36.90
22031;BME280;11179;52.106;21.024;2022-07-17T08:44:06;101069.75;;;27.52;36.77
22031;BME280;11179;52.106;21.024;2022-07-17T08:46:35;101083.94;;;27.68;36.05
22031;BME280;11179;52.106;21.024;2022-07-17T08:49:01;101078.31;;;27.31;35.94
22031;BME280;11179;52.106;21.024;2022-07-17T08:51:27;101073.06;;;27.18;35.88
22031;BME280;11179;52.106;21.024;2022-07-17T08:53:54;101067.78;;;27.04;36.66
22031;BME280;11179;52.106;21.024;2022-07-17T08:56:20;101076.81;;;27.22;36.58
22031;BME280;11179;52.106;21.024;2022-07-17T08:58:46;101070.81;;;27.35;36.27
22031;BME280;11179;52.106;21.024;2022-07-17T09:01:13;101066.78;;;27.61;35.82
22031;BME280;11179;52.106;21.024;2022-07-17T09:03:39;101077.53;;;27.83;35.02
22031;BME280;11179;52.106;21.024;2022-07-17T09:06:17;101078.53;;;27.63;34.87
22031;BME280;11179;52.106;21.024;2022-07-17T09:08:42;101074.53;;;27.64;35.16
22031;BME280;11179;52.106;21.024;2022-07-17T09:11:07;101074.53;;;27.64;34.57
22031;BME280;11179;52.106;21.024;2022-07-17T09:13:33;101081.06;;;27.28;35.15
22031;BME280;11179;52.106;21.024;2022-07-17T09:18:31;101088.38;;;26.47;35.87
22031;BME280;11179;52.106;21.024;2022-07-17T09:20:57;101080.00;;;26.38;36.19
22031;BME280;11179;52.106;21.024;2022-07-17T09:23:25;101084.53;;;26.19;36.09
22031;BME280;11179;52.106;21.024;2022-07-17T09:25:53;101073.50;;;26.59;35.63
22031;BME280;11179;52.106;21.024;2022-07-17T09:28:19;101071.78;;;27.03;35.08
22031;BME280;11179;52.106;21.024;2022-07-17T09:30:51;101079.53;;;26.82;34.70
22031;BME280;11179;52.106;21.024;2022-07-17T09:33:25;101074.84;;;26.98;34.34
22031;BME280;11179;52.106;21.024;2022-07-17T09:35:57;101075.97;;;27.33;34.02
22031;BME280;11179;52.106;21.024;2022-07-17T09:38:40;101076.59;;;27.15;32.72
22031;BME280;11179;52.106;21.024;2022-07-17T09:41:09;101083.59;;;26.72;33.29
22031;BME280;11179;52.106;21.024;2022-07-17T09:43:55;101086.03;;;26.49;34.02
22031;BME280;11179;52.106;21.024;2022-07-17T09:46:24;101085.75;;;26.30;34.74
22031;BME280;11179;52.106;21.024;2022-07-17T09:48:55;101072.00;;;26.73;34.22
22031;BME280;11179;52.106;21.024;2022-07-17T09:53:47;101081.28;;;27.35;33.38
22031;BME280;11179;52.106;21.024;2022-07-17T09:56:18;101073.50;;;27.44;33.41
22031;BME280;11179;52.106;21.024;2022-07-17T09:58:54;101076.69;;;27.30;32.29
22031;BME280;11179;52.106;21.024;2022-07-17T10:01:22;101087.22;;;26.60;33.23
22031;BME280;11179;52.106;21.024;2022-07-17T10:03:47;101078.09;;;26.18;33.98
22031;BME280;11179;52.106;21.024;2022-07-17T10:06:15;101085.59;;;25.93;33.96
22031;BME280;11179;52.106;21.024;2022-07-17T10:08:41;101082.44;;;25.95;33.51
22031;BME280;11179;52.106;21.024;2022-07-17T10:11:08;101080.97;;;26.43;33.24
22031;BME280;11179;52.106;21.024;2022-07-17T10:13:39;101079.06;;;27.04;32.57
22031;BME280;11179;52.106;21.024;2022-07-17T10:16:07;101088.69;;;26.91;32.53
22031;BME280;11179;52.106;21.024;2022-07-17T10:18:43;101083.06;;;26.33;33.18
22031;BME280;11179;52.106;21.024;2022-07-17T10:23:34;101089.16;;;25.31;33.72
22031;BME280;11179;52.106;21.024;2022-07-17T10:25:59;101091.44;;;24.71;34.35
22031;BME280;11179;52.106;21.024;2022-07-17T10:28:25;101087.94;;;24.36;35.05
22031;BME280;11179;52.106;21.024;2022-07-17T10:30:50;101087.41;;;24.25;35.37
22031;BME280;11179;52.106;21.024;2022-07-17T10:33:16;101095.03;;;24.16;35.48
22031;BME280;11179;52.106;21.024;2022-07-17T10:35:46;101080.88;;;23.95;35.94
22031;BME280;11179;52.106;21.024;2022-07-17T10:38:14;101092.72;;;24.01;36.36
22031;BME280;11179;52.106;21.024;2022-07-17T10:40:40;101098.34;;;23.92;35.82
22031;BME280;11179;52.106;21.024;2022-07-17T10:43:08;101100.16;;;23.79;35.78
22031;BME280;11179;52.106;21.024;2022-07-17T10:48:14;101095.34;;;23.54;35.95
22031;BME280;11179;52.106;21.024;2022-07-17T10:50:48;101094.84;;;23.52;36.32
22031;BME280;11179;52.106;21.024;2022-07-17T10:53:28;101098.19;;;23.63;37.18
22031;BME280;11179;52.106;21.024;2022-07-17T10:55:57;101095.16;;;23.59;36.58
22031;BME280;11179;52.106;21.024;2022-07-17T10:58:31;101093.03;;;23.56;36.64
22031;BME280;11179;52.106;21.024;2022-07-17T11:04:00;101087.44;;;23.73;36.42
22031;BME280;11179;52.106;21.024;2022-07-17T11:06:37;101090.34;;;24.54;36.17
22031;BME280;11179;52.106;21.024;2022-07-17T11:09:04;101079.91;;;25.31;35.47
22031;BME280;11179;52.106;21.024;2022-07-17T11:11:44;101077.88;;;26.02;35.02
22031;BME280;11179;52.106;21.024;2022-07-17T11:14:14;101080.41;;;26.49;34.45
22031;BME280;11179;52.106;21.024;2022-07-17T11:16:45;101087.66;;;26.50;33.64
22031;BME280;11179;52.106;21.024;2022-07-17T11:19:10;101083.84;;;26.22;33.02
22031;BME280;11179;52.106;21.024;2022-07-17T11:21:46;101087.63;;;25.84;33.45
22031;BME280;11179;52.106;21.024;2022-07-17T11:24:12;101084.16;;;25.66;33.63
22031;BME280;11179;52.106;21.024;2022-07-17T11:26:37;101083.09;;;25.71;33.75
22031;BME280;11179;52.106;21.024;2022-07-17T11:29:02;101082.16;;;25.88;33.33
22031;BME280;11179;52.106;21.024;2022-07-17T11:31:28;101077.53;;;25.83;33.76
22031;BME280;11179;52.106;21.024;2022-07-17T11:34:06;101091.09;;;25.69;33.78
22031;BME280;11179;52.106;21.024;2022-07-17T11:36:41;101094.63;;;25.57;34.14
22031;BME280;11179;52.106;21.024;2022-07-17T11:39:11;101088.41;;;25.43;33.47
22031;BME280;11179;52.106;21.024;2022-07-17T11:41:46;101097.63;;;25.02;33.90
22031;BME280;11179;52.106;21.024;2022-07-17T11:44:17;101101.72;;;24.58;33.98
22031;BME280;11179;52.106;21.024;2022-07-17T11:46:46;101097.81;;;24.16;34.35
22031;BME280;11179;52.106;21.024;2022-07-17T11:49:24;101106.25;;;23.90;34.74
22031;BME280;11179;52.106;21.024;2022-07-17T11:51:50;101108.25;;;23.89;35.28
22031;BME280;11179;52.106;21.024;2022-07-17T11:54:16;101097.69;;;23.86;35.13
22031;BME280;11179;52.106;21.024;2022-07-17T11:56:48;101094.56;;;23.79;35.51
22031;BME280;11179;52.106;21.024;2022-07-17T11:59:24;101094.56;;;23.79;35.25
22031;BME280;11179;52.106;21.024;2022-07-17T12:01:50;101094.38;;;24.02;35.65
22031;BME280;11179;52.106;21.024;2022-07-17T12:04:15;101094.22;;;24.07;35.45
22031;BME280;11179;52.106;21.024;2022-07-17T12:06:41;101092.91;;;24.04;35.72
22031;BME280;11179;52.106;21.024;2022-07-17T12:09:07;101099.34;;;23.87;35.09
22031;BME280;11179;52.106;21.024;2022-07-17T12:11:44;101088.63;;;23.81;35.29
22031;BME280;11179;52.106;21.024;2022-07-17T12:14:09;101084.16;;;23.88;34.51
22031;BME280;11179;52.106;21.024;2022-07-17T12:16:36;101078.72;;;24.09;34.31
22031;BME280;11179;52.106;21.024;2022-07-17T12:19:03;101085.44;;;24.17;33.75
22031;BME280;11179;52.106;21.024;2022-07-17T12:21:33;101081.50;;;24.35;33.67
22031;BME280;11179;52.106;21.024;2022-07-17T12:24:02;101075.84;;;24.44;33.30
22031;BME280;11179;52.106;21.024;2022-07-17T12:26:28;101078.50;;;24.40;33.47
22031;BME280;11179;52.106;21.024;2022-07-17T12:28:54;101075.19;;;24.38;32.92
22031;BME280;11179;52.106;21.024;2022-07-17T12:31:20;101077.53;;;24.36;31.75
22031;BME280;11179;52.106;21.024;2022-07-17T12:33:46;101078.13;;;24.50;31.32
22031;BME280;11179;52.106;21.024;2022-07-17T12:36:12;101074.59;;;24.71;31.02
22031;BME280;11179;52.106;21.024;2022-07-17T12:38:38;101067.44;;;24.82;31.08
22031;BME280;11179;52.106;21.024;2022-07-17T12:41:03;101076.78;;;25.03;31.05
22031;BME280;11179;52.106;21.024;2022-07-17T12:43:30;101070.66;;;25.30;31.19
22031;BME280;11179;52.106;21.024;2022-07-17T12:45:55;101067.22;;;25.46;31.06
22031;BME280;11179;52.106;21.024;2022-07-17T12:48:21;101071.13;;;25.32;30.50
22031;BME280;11179;52.106;21.024;2022-07-17T12:50:46;101065.09;;;25.22;30.59
22031;BME280;11179;52.106;21.024;2022-07-17T12:53:11;101063.00;;;25.40;31.39
22031;BME280;11179;52.106;21.024;2022-07-17T12:55:38;101064.91;;;25.48;31.05